Time;durP1;ratioP1;P1;durP2;ratioP2;P2;SDS_P1;SDS_P2;PMS_P1;PMS_P2;Temp;Humidity;BMP_temperature;BMP_pressure;BME280_temperature;BME280_humidity;BME280_pressure;Samples;Min_cycle;Max_cycle;Signal;HPM_P1;HPM_P2
2021/01/15 00:00:48;;;;;;;22.42;8.50;;;;;;;-2.32;82.64;98619.38;1688937;84;21170;-82
2021/01/15 00:03:16;;;;;;;25.57;9.83;;;;;;;-2.30;82.96;98624.93;1704659;83;21190;-82
2021/01/15 00:05:44;;;;;;;22.52;9.40;;;;;;;-2.29;83.04;98633.42;1667253;80;21253;-81
2021/01/15 00:08:11;;;;;;;22.05;8.33;;;;;;;-2.31;83.07;98635.93;1667446;80;21261;-82
2021/01/15 00:10:39;;;;;;;18.20;8.05;;;;;;;-2.33;83.09;98633.77;1681696;80;21474;-81
2021/01/15 00:13:07;;;;;;;20.02;8.05;;;;;;;-2.42;82.38;98627.25;1683844;85;21149;-82
2021/01/15 00:15:39;;;;;;;17.30;7.70;;;;;;;-2.41;82.67;98634.05;1721381;79;21216;31
2021/01/15 00:18:07;;;;;;;18.92;7.37;;;;;;;-2.43;82.55;98640.79;1664901;85;21158;-82
2021/01/15 00:20:35;;;;;;;22.02;8.65;;;;;;;-2.45;82.58;98641.17;1658203;85;21319;-82
2021/01/15 00:23:07;;;;;;;19.07;8.73;;;;;;;-2.46;81.91;98656.02;1705100;78;21291;31
2021/01/15 00:25:34;;;;;;;22.22;8.75;;;;;;;-2.46;82.20;98660.69;1735099;78;21159;-82
2021/01/15 00:28:02;;;;;;;20.95;8.53;;;;;;;-2.46;82.45;98661.11;1778152;78;21285;-81
2021/01/15 00:30:31;;;;;;;24.18;8.58;;;;;;;-2.51;82.17;98669.91;1760682;81;21231;-83
2021/01/15 00:33:00;;;;;;;19.12;7.72;;;;;;;-2.53;82.18;98666.90;1756097;78;21224;31
2021/01/15 00:35:28;;;;;;;17.45;7.40;;;;;;;-2.52;82.34;98666.94;1715677;82;21268;-81
2021/01/15 00:37:56;;;;;;;22.77;8.30;;;;;;;-2.58;81.27;98665.55;1711235;82;21268;-83
2021/01/15 00:40:24;;;;;;;19.27;8.18;;;;;;;-2.54;81.86;98674.11;1740109;78;21140;-82
2021/01/15 00:42:52;;;;;;;20.80;7.22;;;;;;;-2.50;81.94;98672.06;1741152;77;21284;-82
2021/01/15 00:45:20;;;;;;;17.87;7.83;;;;;;;-2.51;82.16;98670.33;1727076;82;21111;-82
2021/01/15 00:47:48;;;;;;;20.92;8.73;;;;;;;-2.51;82.42;98675.00;1701772;82;21333;-82
2021/01/15 00:53:26;;;;;;;23.35;9.18;;;;;;;-2.52;82.70;98665.66;1750394;78;21158;-83
2021/01/15 00:55:54;;;;;;;25.23;9.50;;;;;;;-2.54;83.41;98677.92;1766488;78;21252;-83
2021/01/15 00:58:22;;;;;;;26.10;10.18;;;;;;;-2.52;83.12;98683.48;1801708;77;21109;-83
2021/01/15 01:00:51;;;;;;;23.07;9.85;;;;;;;-2.56;83.31;98682.98;1780849;79;21120;-83
2021/01/15 01:03:21;;;;;;;25.08;10.35;;;;;;;-2.59;84.11;98682.89;1753066;80;21451;-85
2021/01/15 01:06:12;;;;;;;23.07;9.33;;;;;;;-2.59;84.38;98684.17;1757200;78;21125;31
2021/01/15 01:08:49;;;;;;;21.07;9.90;;;;;;;-2.57;84.26;98688.03;1725402;80;22552;31
2021/01/15 01:11:21;;;;;;;22.32;9.60;;;;;;;-2.68;85.34;98683.58;1722113;83;21133;-83
2021/01/15 01:13:52;;;;;;;23.77;10.58;;;;;;;-2.67;84.62;98690.37;1711419;80;21222;-83
2021/01/15 01:16:22;;;;;;;24.15;10.63;;;;;;;-2.68;85.41;98691.21;1741965;80;21225;-83
2021/01/15 01:18:50;;;;;;;26.70;10.35;;;;;;;-2.66;85.05;98688.28;1712576;82;21354;-80
2021/01/15 01:21:18;;;;;;;30.88;10.70;;;;;;;-2.67;85.35;98688.25;1705270;82;21156;-83
2021/01/15 01:23:47;;;;;;;22.13;8.88;;;;;;;-2.64;85.06;98693.41;1721767;79;21213;-82
2021/01/15 01:26:16;;;;;;;31.37;11.08;;;;;;;-2.62;85.27;98695.58;1730487;79;22784;-81
2021/01/15 01:28:45;;;;;;;25.80;10.70;;;;;;;-2.61;85.41;98695.62;1779247;78;21255;-77
2021/01/15 01:31:15;;;;;;;24.75;10.10;;;;;;;-2.55;85.34;98706.31;1787245;77;21270;-83
2021/01/15 01:33:44;;;;;;;25.08;10.28;;;;;;;-2.56;85.78;98697.39;1774766;78;21247;-83
2021/01/15 01:36:19;;;;;;;26.52;10.40;;;;;;;-2.50;85.16;98704.73;1721213;78;21297;31
2021/01/15 01:38:47;;;;;;;24.10;9.80;;;;;;;-2.49;85.21;98708.13;1721493;81;21122;-82
2021/01/15 01:41:15;;;;;;;23.60;9.63;;;;;;;-2.71;85.51;98668.66;1761514;78;21286;-82
2021/01/15 01:43:43;;;;;;;22.37;9.98;;;;;;;-2.46;85.18;98697.60;1742994;78;21318;-82
2021/01/15 01:46:24;;;;;;;24.37;9.18;;;;;;;-2.45;85.30;98703.16;1718598;79;21190;31
2021/01/15 01:48:58;;;;;;;27.02;11.22;;;;;;;-2.45;85.48;98694.64;1707331;79;21260;31
2021/01/15 01:54:35;;;;;;;23.12;9.88;;;;;;;-2.44;85.67;98695.95;1726571;82;21153;-84
2021/01/15 01:57:16;;;;;;;26.35;10.72;;;;;;;-2.49;86.07;98694.98;1724050;81;21478;31
2021/01/15 01:59:44;;;;;;;28.85;12.37;;;;;;;-2.42;85.77;98697.26;1746423;79;21542;-83
2021/01/15 02:02:19;;;;;;;21.90;10.08;;;;;;;-2.42;85.55;98701.08;1764477;78;22750;31
2021/01/15 02:04:47;;;;;;;20.17;8.75;;;;;;;-2.32;85.08;98702.12;1767928;77;21176;-79
2021/01/15 02:13:36;;;;;;;23.98;9.50;;;;;;;-2.27;84.66;98709.03;1754012;80;21262;-84
2021/01/15 02:16:26;;;;;;;22.90;10.32;;;;;;;-2.32;84.65;98716.98;1753662;80;21128;-82
2021/01/15 02:19:19;;;;;;;23.60;9.10;;;;;;;-2.29;84.75;98713.63;1749767;78;21394;31
2021/01/15 02:21:55;;;;;;;22.45;10.28;;;;;;;-2.31;84.67;98721.65;1733778;79;21282;-81
2021/01/15 02:28:16;;;;;;;19.45;8.60;;;;;;;-2.33;84.32;98721.61;1730781;77;22387;31
2021/01/15 02:30:49;;;;;;;23.05;9.68;;;;;;;-2.40;84.63;98721.06;1702186;81;21255;-85
2021/01/15 02:44:40;;;;;;;23.42;9.23;;;;;;;-2.46;84.95;98726.03;1870077;73;25445;-79
2021/01/15 02:53:11;;;;;;;28.40;10.82;;;;;;;-2.60;84.84;98732.95;1781436;77;21262;-84
2021/01/15 02:58:52;;;;;;;19.12;8.93;;;;;;;-2.69;85.90;98737.83;1779683;76;21093;31
2021/01/15 03:04:50;;;;;;;19.32;8.30;;;;;;;-2.72;84.64;98738.20;1734334;77;22545;31
2021/01/15 03:07:26;;;;;;;16.77;6.42;;;;;;;-2.63;83.07;98746.02;1800942;77;21295;31
2021/01/15 03:10:04;;;;;;;22.10;7.25;;;;;;;-2.49;82.42;98746.31;1772134;77;21150;31
2021/01/15 03:12:44;;;;;;;18.42;7.70;;;;;;;-2.37;82.61;98754.62;1786937;75;21303;31
2021/01/15 03:28:28;;;;;;;23.70;9.20;;;;;;;-1.91;80.98;98756.43;1799514;77;21102;31
2021/01/15 03:30:58;;;;;;;20.12;8.80;;;;;;;-1.89;81.03;98751.34;1780936;77;21324;31
2021/01/15 03:37:01;;;;;;;24.02;10.70;;;;;;;-1.82;80.67;98762.10;1774532;76;21230;31
2021/01/15 03:46:18;;;;;;;18.57;8.05;;;;;;;-1.75;80.52;98769.44;1799879;76;21145;31
2021/01/15 03:52:07;;;;;;;22.98;9.50;;;;;;;-1.70;79.83;98769.13;1765230;77;22839;31
2021/01/15 03:58:12;;;;;;;21.23;8.37;;;;;;;-1.73;79.59;98773.76;1789847;76;21295;31
2021/01/15 04:00:51;;;;;;;22.20;8.73;;;;;;;-1.76;79.98;98773.69;1815367;75;21212;31
2021/01/15 04:10:12;;;;;;;17.25;7.92;;;;;;;-1.75;79.87;98778.36;1821555;75;21232;31
2021/01/15 04:19:07;;;;;;;15.13;7.10;;;;;;;-1.76;78.89;98771.56;1800254;76;21225;31
2021/01/15 04:24:44;;;;;;;15.32;6.95;;;;;;;-1.72;79.06;98781.83;1829002;75;21420;-83
2021/01/15 04:33:47;;;;;;;19.57;7.80;;;;;;;-1.71;79.36;98800.12;1844153;75;21240;31
2021/01/15 04:36:15;;;;;;;26.52;9.03;;;;;;;-1.73;79.65;98790.71;1859650;77;21276;-84
2021/01/15 04:39:07;;;;;;;25.77;9.93;;;;;;;-1.73;79.78;98790.71;1844333;75;21299;31
2021/01/15 04:51:29;;;;;;;27.40;11.40;;;;;;;-1.77;79.76;98797.86;1839671;75;21192;31
2021/01/15 05:00:30;;;;;;;23.95;9.20;;;;;;;-1.82;80.15;98807.97;1839069;75;21312;31
2021/01/15 05:03:06;;;;;;;27.27;10.13;;;;;;;-1.87;80.24;98814.66;1818674;75;21250;31
2021/01/15 05:18:02;;;;;;;25.50;9.90;;;;;;;-1.98;81.33;98831.01;1839665;75;22432;31
2021/01/15 05:33:57;;;;;;;20.47;10.63;;;;;;;-2.05;81.81;98835.13;1786113;76;21297;31
2021/01/15 05:43:23;;;;;;;23.02;9.75;;;;;;;-2.01;82.07;98850.03;1790235;76;22850;31
2021/01/15 05:46:07;;;;;;;23.03;10.27;;;;;;;-1.97;82.32;98849.69;1774493;75;21627;31
2021/01/15 05:48:45;;;;;;;23.10;9.58;;;;;;;-1.98;82.77;98850.11;1818213;76;21320;31
2021/01/15 05:57:53;;;;;;;24.98;9.93;;;;;;;-1.86;82.45;98855.88;1820557;76;21257;31
2021/01/15 06:03:38;;;;;;;28.30;10.70;;;;;;;-1.85;82.64;98854.64;1814404;76;21123;-84
2021/01/15 06:06:07;;;;;;;24.45;10.50;;;;;;;-1.80;82.57;98853.03;1817747;76;21344;-82
2021/01/15 06:08:43;;;;;;;26.95;10.68;;;;;;;-1.77;82.52;98860.30;1828715;76;21308;-85
2021/01/15 06:11:23;;;;;;;24.55;10.63;;;;;;;-1.73;82.25;98864.63;1808833;78;21289;-83
2021/01/15 06:13:54;;;;;;;27.32;11.35;;;;;;;-1.74;82.28;98852.73;1816592;76;21191;-82
2021/01/15 06:25:56;;;;;;;26.30;10.48;;;;;;;-1.70;81.88;98869.38;1846978;75;21265;-83
2021/01/15 06:35:01;;;;;;;21.15;8.83;;;;;;;-1.63;80.92;98867.83;1772257;76;22728;31
2021/01/15 06:37:30;;;;;;;22.20;8.58;;;;;;;-1.60;80.91;98871.70;1823791;75;21134;-84
2021/01/15 06:43:21;;;;;;;20.92;8.93;;;;;;;-1.53;79.14;98881.20;1833156;75;21120;-83
2021/01/15 06:49:04;;;;;;;21.87;8.13;;;;;;;-1.46;77.30;98883.02;1802434;76;21144;-82
2021/01/15 06:51:38;;;;;;;41.48;14.18;;;;;;;-1.43;77.15;98884.38;1795335;76;21376;-82
2021/01/15 07:06:46;;;;;;;27.73;12.23;;;;;;;-1.38;80.45;98893.38;1851716;75;21226;31
2021/01/15 07:15:32;;;;;;;23.18;11.03;;;;;;;-1.29;80.86;98919.49;1817672;75;21232;-84
2021/01/15 07:21:13;;;;;;;26.50;11.50;;;;;;;-1.22;81.30;98917.06;1754750;77;21147;-83
2021/01/15 07:30:20;;;;;;;25.68;10.08;;;;;;;-1.11;80.76;98919.83;1771238;77;21261;-83
2021/01/15 07:36:17;;;;;;;21.42;9.65;;;;;;;-0.95;81.00;98925.23;1755180;79;21761;-82
2021/01/15 07:39:04;;;;;;;27.52;12.85;;;;;;;-0.95;81.29;98923.53;1763831;79;21308;-84
2021/01/15 08:00:24;;;;;;;33.60;14.50;;;;;;;-0.62;81.68;98943.70;1804928;75;21195;-83
2021/01/15 08:06:08;;;;;;;30.10;12.90;;;;;;;-0.62;81.30;98917.28;1739780;81;21395;-84
2021/01/15 08:15:38;;;;;;;38.42;14.98;;;;;;;-0.38;80.40;98950.02;1637392;82;21207;-83
2021/01/15 08:29:07;;;;;;;36.83;18.25;;;;;;;-0.29;79.29;98954.02;1863245;74;28089;-84
2021/01/15 08:31:38;;;;;;;28.50;14.00;;;;;;;-0.22;78.94;98960.06;1800204;76;21297;-77
2021/01/15 08:54:05;;;;;;;28.80;12.55;;;;;;;-0.01;79.01;98956.58;1761985;77;21118;-83
2021/01/15 09:03:45;;;;;;;32.00;12.37;;;;;;;0.18;78.61;98956.44;1760132;76;21421;31
2021/01/15 09:06:14;;;;;;;24.20;11.12;;;;;;;0.25;77.79;98961.20;1758077;78;21175;-83
2021/01/15 09:12:08;;;;;;;29.30;11.75;;;;;;;0.32;77.75;98955.75;1796541;78;21268;-84
2021/01/15 09:14:37;;;;;;;30.37;13.75;;;;;;;0.39;77.75;98960.97;1781700;78;21110;-83
2021/01/15 09:17:08;;;;;;;31.23;12.37;;;;;;;0.53;78.26;98956.47;1806275;78;21202;-84
2021/01/15 09:22:37;;;;;;;27.55;11.57;;;;;;;0.66;77.85;98952.38;1716703;81;21297;-85
2021/01/15 09:31:30;;;;;;;26.10;11.73;;;;;;;0.83;76.57;98947.45;1689497;83;21224;-84
2021/01/15 09:33:58;;;;;;;34.10;13.53;;;;;;;0.87;76.59;98949.20;1738294;80;21289;-88
2021/01/15 09:36:28;;;;;;;30.10;14.13;;;;;;;0.95;77.45;98945.88;1705086;76;21386;-84
2021/01/15 09:39:27;;;;;;;31.42;13.70;;;;;;;0.97;77.34;98933.95;1719727;79;21143;-86
2021/01/15 09:41:58;;;;;;;27.90;13.35;;;;;;;0.95;76.80;98933.08;1705169;79;21347;-85
2021/01/15 09:44:28;;;;;;;28.73;12.47;;;;;;;0.86;76.73;98903.56;1759818;79;21575;-88
2021/01/15 09:47:03;;;;;;;34.18;14.83;;;;;;;1.14;77.12;98945.66;1765677;79;21238;-89
2021/01/15 09:49:31;;;;;;;30.70;13.65;;;;;;;1.19;76.42;98940.58;1793042;78;21369;-85
2021/01/15 09:52:02;;;;;;;26.15;11.55;;;;;;;1.35;75.71;98946.71;1727047;80;21306;-89
2021/01/15 09:54:54;;;;;;;24.77;11.08;;;;;;;1.26;74.71;98940.23;1689920;80;21138;-89
2021/01/15 09:57:22;;;;;;;23.70;9.70;;;;;;;1.09;73.95;98943.46;1724235;81;21328;-89
2021/01/15 09:59:52;;;;;;;26.70;11.28;;;;;;;1.24;74.73;98947.91;1717298;82;21202;-89
2021/01/15 10:02:20;;;;;;;25.72;10.18;;;;;;;1.35;75.29;98938.62;1686488;81;21482;-88
2021/01/15 10:04:50;;;;;;;23.15;11.88;;;;;;;1.39;75.04;98931.41;1692307;82;21309;-86
2021/01/15 10:10:27;;;;;;;31.87;10.75;;;;;;;1.39;74.20;98923.72;1676028;84;21421;-84
2021/01/15 10:12:55;;;;;;;28.25;11.60;;;;;;;1.39;73.38;98928.84;1651447;85;21348;-87
2021/01/15 10:15:23;;;;;;;24.18;10.70;;;;;;;1.42;73.23;98933.13;1652283;84;21226;-86
2021/01/15 10:17:51;;;;;;;31.15;12.45;;;;;;;1.26;73.15;98930.84;1660156;84;21324;-86
2021/01/15 10:20:24;;;;;;;26.20;12.28;;;;;;;1.37;73.65;98927.97;1646734;84;21328;-88
2021/01/15 10:22:49;;;;;;;21.48;10.55;;;;;;;1.30;73.68;98931.73;1677918;84;21260;-86
2021/01/15 10:25:17;;;;;;;24.12;10.80;;;;;;;1.25;72.98;98926.98;1670773;83;21583;-86
2021/01/15 10:27:46;;;;;;;35.13;10.80;;;;;;;1.29;74.34;98927.45;1677331;84;21771;-82
2021/01/15 10:30:16;;;;;;;22.82;11.10;;;;;;;1.30;73.53;98925.34;1680728;84;21327;-87
2021/01/15 10:32:47;;;;;;;28.20;10.23;;;;;;;1.12;72.50;98926.02;1686498;84;21287;-88
2021/01/15 10:35:15;;;;;;;24.60;10.78;;;;;;;1.29;73.21;98917.20;1679147;82;21162;-91
2021/01/15 10:37:43;;;;;;;28.60;10.82;;;;;;;1.25;72.87;98918.87;1686905;83;21385;-91
2021/01/15 10:40:11;;;;;;;27.02;10.43;;;;;;;1.44;73.59;98921.62;1685605;83;21202;-84
2021/01/15 10:42:43;;;;;;;26.62;10.85;;;;;;;1.47;73.41;98924.19;1662999;84;21401;-88
2021/01/15 10:45:10;;;;;;;24.60;10.55;;;;;;;1.44;73.10;98913.94;1708554;82;21355;-82
2021/01/15 10:47:42;;;;;;;28.32;12.13;;;;;;;1.32;72.90;98912.97;1670528;83;21321;-85
2021/01/15 10:50:13;;;;;;;25.72;10.30;;;;;;;1.27;72.71;98913.77;1720951;82;21157;-84
2021/01/15 10:52:41;;;;;;;25.70;12.88;;;;;;;1.18;73.19;98905.16;1759230;79;21204;-87
2021/01/15 10:55:13;;;;;;;23.77;9.55;;;;;;;1.17;73.33;98905.14;1786157;79;22085;-87
2021/01/15 10:57:41;;;;;;;29.65;10.38;;;;;;;1.20;72.86;98900.06;1744955;79;21342;-85
2021/01/15 11:00:11;;;;;;;26.82;10.40;;;;;;;1.30;73.73;98896.73;1740681;81;21553;-86
2021/01/15 11:02:39;;;;;;;24.92;11.28;;;;;;;1.32;73.21;98900.16;1729653;80;21170;-86
2021/01/15 11:05:08;;;;;;;25.65;10.80;;;;;;;1.37;73.62;98902.36;1726114;81;21149;-87
2021/01/15 11:07:36;;;;;;;35.05;12.05;;;;;;;1.32;72.92;98899.31;1716509;81;21248;-85
2021/01/15 11:10:07;;;;;;;27.27;13.03;;;;;;;1.38;73.69;98902.77;1713955;81;21789;-89
2021/01/15 11:12:35;;;;;;;27.55;10.58;;;;;;;1.34;73.67;98904.88;1699850;81;21879;-88
2021/01/15 11:15:04;;;;;;;29.15;11.63;;;;;;;1.28;73.53;98899.70;1715884;82;21357;-85
2021/01/15 11:17:32;;;;;;;29.10;13.13;;;;;;;1.24;73.62;98899.67;1686400;81;21458;-87
2021/01/15 11:20:00;;;;;;;31.90;10.85;;;;;;;1.22;73.80;98897.09;1709319;81;21271;-85
2021/01/15 11:22:28;;;;;;;24.40;11.25;;;;;;;1.22;72.54;98894.53;1717988;80;21332;-88
2021/01/15 11:24:56;;;;;;;22.73;10.20;;;;;;;1.06;72.49;98872.19;1700291;79;21601;-87
2021/01/15 11:27:25;;;;;;;27.20;12.15;;;;;;;1.26;73.07;98888.59;1712729;81;21193;-90
2021/01/15 11:29:56;;;;;;;23.85;10.53;;;;;;;1.30;72.23;98876.24;1705913;82;21337;-89
2021/01/15 11:32:41;;;;;;;22.02;11.57;;;;;;;1.40;72.28;98886.14;1714275;78;21146;-84
2021/01/15 11:35:10;;;;;;;23.83;10.72;;;;;;;1.35;71.84;98884.84;1762028;78;21161;-87
2021/01/15 11:37:38;;;;;;;24.07;10.45;;;;;;;1.41;71.91;98892.12;1751825;80;21164;-82
2021/01/15 11:40:07;;;;;;;25.50;11.80;;;;;;;1.31;71.27;98877.97;1761009;79;21173;-89
2021/01/15 11:42:36;;;;;;;26.90;10.20;;;;;;;1.48;72.77;98883.66;1757335;79;21192;-89
2021/01/15 11:45:06;;;;;;;28.20;11.65;;;;;;;1.50;71.96;98881.96;1751924;79;21326;-88
2021/01/15 11:47:33;;;;;;;29.95;11.85;;;;;;;1.43;71.57;98873.78;1750244;80;21304;-90
2021/01/15 11:50:01;;;;;;;27.25;11.78;;;;;;;1.52;72.22;98880.27;1752402;79;21712;-86
2021/01/15 11:52:29;;;;;;;24.95;11.05;;;;;;;1.39;71.34;98876.73;1746135;80;21259;-83
2021/01/15 11:54:57;;;;;;;25.02;11.57;;;;;;;1.39;71.77;98871.20;1758701;79;21288;-83
2021/01/15 11:57:25;;;;;;;22.10;11.20;;;;;;;1.29;71.53;98876.22;1773025;78;21283;-89
2021/01/15 11:59:53;;;;;;;19.02;8.80;;;;;;;1.22;71.30;98877.03;1761395;79;21232;-86
2021/01/15 12:02:22;;;;;;;24.98;12.05;;;;;;;1.17;71.31;98879.53;1757714;80;21287;-88
2021/01/15 12:04:50;;;;;;;21.42;9.48;;;;;;;0.97;71.94;98869.10;1760833;80;21308;-92
2021/01/15 12:07:22;;;;;;;27.05;11.63;;;;;;;1.09;72.13;98876.05;1702609;80;21194;-89
2021/01/15 12:09:50;;;;;;;21.70;9.73;;;;;;;1.09;72.38;98885.00;1706371;79;21457;-91
2021/01/15 12:12:38;;;;;;;27.37;11.10;;;;;;;1.20;72.32;98879.58;1752925;77;21189;-85
2021/01/15 12:15:09;;;;;;;20.43;9.95;;;;;;;1.21;72.58;98881.27;1771053;78;21177;-89
2021/01/15 12:17:37;;;;;;;24.10;9.85;;;;;;;1.21;70.60;98888.95;1766456;78;21268;-86
2021/01/15 12:20:06;;;;;;;26.07;9.55;;;;;;;1.36;71.32;98874.16;1767076;78;21304;-89
2021/01/15 12:22:34;;;;;;;17.42;7.78;;;;;;;1.29;70.71;98878.35;1767783;79;21228;-89
2021/01/15 12:25:02;;;;;;;20.75;8.50;;;;;;;1.17;69.39;98876.57;1754709;79;21328;-87
2021/01/15 12:27:31;;;;;;;19.25;6.97;;;;;;;1.33;70.63;98871.16;1759611;79;21329;-89
2021/01/15 12:29:59;;;;;;;21.65;8.33;;;;;;;1.08;69.83;98839.78;1784384;78;21183;-87
2021/01/15 12:32:27;;;;;;;18.35;7.58;;;;;;;1.22;68.70;98877.88;1751406;78;21278;-85
2021/01/15 12:34:55;;;;;;;20.97;7.33;;;;;;;1.11;69.00;98873.92;1756428;76;21640;-87
2021/01/15 12:37:28;;;;;;;15.13;6.12;;;;;;;1.12;68.31;98879.93;1750329;80;21287;-86
2021/01/15 12:40:01;;;;;;;22.02;7.95;;;;;;;0.99;68.62;98877.25;1731432;77;21234;31
2021/01/15 12:42:31;;;;;;;16.00;7.10;;;;;;;1.08;69.84;98879.03;1710649;80;21331;-86
2021/01/15 12:44:59;;;;;;;16.20;7.67;;;;;;;1.06;68.97;98881.16;1735157;78;21240;-82
2021/01/15 12:47:27;;;;;;;13.95;8.00;;;;;;;0.99;67.70;98872.14;1749429;79;21140;-84
2021/01/15 12:52:30;;;;;;;20.12;7.67;;;;;;;0.96;67.41;98881.48;1724196;78;21161;-90
2021/01/15 12:54:58;;;;;;;27.93;8.85;;;;;;;1.06;67.60;98874.75;1714520;82;21305;-89
2021/01/15 12:57:26;;;;;;;16.42;6.97;;;;;;;1.32;66.65;98883.95;1690700;82;21214;-88
2021/01/15 12:59:54;;;;;;;14.33;7.67;;;;;;;1.51;67.57;98886.22;1719001;81;21347;-90
2021/01/15 13:02:22;;;;;;;26.73;8.88;;;;;;;1.87;64.67;98888.21;1691549;79;21181;-90
2021/01/15 13:04:50;;;;;;;15.18;7.30;;;;;;;2.35;65.96;98884.20;1669816;84;21228;-90
2021/01/15 13:07:18;;;;;;;18.27;7.70;;;;;;;3.15;63.10;98886.14;1672102;84;21224;-89
2021/01/15 13:09:46;;;;;;;18.40;8.20;;;;;;;3.73;59.72;98891.29;1717657;81;21210;-90
2021/01/15 13:12:15;;;;;;;18.92;8.78;;;;;;;3.95;63.56;98884.84;1711847;81;21142;-90
2021/01/15 13:14:44;;;;;;;16.37;8.80;;;;;;;3.58;57.91;98887.03;1724440;77;21320;-92
2021/01/15 13:17:11;;;;;;;19.67;8.60;;;;;;;3.41;60.58;98891.73;1750549;78;21303;-90
2021/01/15 13:19:40;;;;;;;21.80;7.25;;;;;;;2.97;58.70;98880.11;1780903;78;21218;-89
2021/01/15 13:22:07;;;;;;;17.80;6.83;;;;;;;2.93;62.49;98887.81;1775352;76;21169;-88
2021/01/15 13:24:35;;;;;;;15.05;8.05;;;;;;;2.62;59.59;98891.56;1757330;77;21690;-92
2021/01/15 13:27:03;;;;;;;21.77;8.88;;;;;;;2.24;60.15;98891.41;1754040;79;21372;-94
2021/01/15 13:29:31;;;;;;;29.20;8.05;;;;;;;2.33;61.72;98892.75;1758441;79;21297;-91
2021/01/15 13:31:59;;;;;;;17.87;9.65;;;;;;;2.25;63.60;98893.98;1771706;78;21275;-93
2021/01/15 13:34:27;;;;;;;17.77;8.60;;;;;;;1.95;60.79;98898.48;1741244;79;21275;-90
2021/01/15 13:37:00;;;;;;;20.62;9.83;;;;;;;1.79;60.90;98898.41;1699291;83;21316;-88
2021/01/15 13:39:28;;;;;;;21.02;7.70;;;;;;;1.83;62.94;98902.26;1806111;77;21158;-91
2021/01/15 13:41:56;;;;;;;13.83;6.95;;;;;;;1.71;61.74;98903.91;1790041;78;21271;-90
2021/01/15 13:44:25;;;;;;;21.77;7.95;;;;;;;1.61;61.63;98907.66;1785085;78;21248;-89
2021/01/15 13:46:53;;;;;;;16.07;7.22;;;;;;;1.50;60.54;98905.02;1738362;78;21191;-89
2021/01/15 13:49:24;;;;;;;24.25;9.58;;;;;;;1.50;62.45;98904.59;1745308;80;21166;-87
2021/01/15 13:51:52;;;;;;;34.60;12.15;;;;;;;1.48;64.31;98901.16;1722455;78;21158;-88
2021/01/15 13:54:20;;;;;;;27.10;13.10;;;;;;;1.36;63.95;98899.34;1764142;78;21283;-90
2021/01/15 13:56:48;;;;;;;17.45;8.10;;;;;;;1.30;64.09;98898.45;1754869;79;21210;-90
2021/01/15 13:59:16;;;;;;;15.18;6.25;;;;;;;1.21;62.56;98903.47;1711854;80;21361;-86
2021/01/15 14:01:44;;;;;;;14.15;7.25;;;;;;;1.08;62.98;98894.83;1740470;79;21216;-87
2021/01/15 14:04:12;;;;;;;16.23;6.20;;;;;;;0.93;62.12;98898.92;1741225;79;21184;-87
2021/01/15 14:12:51;;;;;;;;;;;;;;;0.67;64.34;98902.91;1732387;79;21243;-83
2021/01/15 14:18:44;;;;;;;25.10;7.78;;;;;;;0.58;65.23;98912.20;1711625;79;21130;31
2021/01/15 14:21:36;;;;;;;24.20;9.80;;;;;;;0.57;65.35;98911.75;1718587;78;21236;31
2021/01/15 14:24:05;;;;;;;16.80;8.05;;;;;;;0.54;65.51;98914.28;1698506;79;21142;-80
2021/01/15 14:30:00;;;;;;;24.23;8.10;;;;;;;0.53;65.93;98907.44;1732886;76;22515;-79
2021/01/15 14:32:48;;;;;;;22.58;10.03;;;;;;;0.55;66.56;98911.30;1728755;75;21235;31
2021/01/15 14:38:11;;;;;;;18.87;7.87;;;;;;;0.55;67.05;98909.59;1716316;76;21243;-82
2021/01/15 14:47:27;;;;;;;22.45;9.05;;;;;;;0.49;68.06;98917.63;1736356;77;21348;-84
2021/01/15 14:49:55;;;;;;;23.35;10.43;;;;;;;0.50;68.18;98908.70;1756857;76;21258;-83
2021/01/15 14:55:41;;;;;;;25.97;8.55;;;;;;;0.56;67.81;98915.16;1756895;76;21149;-85
2021/01/15 14:58:15;;;;;;;27.05;12.80;;;;;;;0.56;67.65;98921.98;1746188;76;22728;31
2021/01/15 15:07:30;;;;;;;15.60;7.22;;;;;;;0.39;67.82;98923.89;1749184;77;22702;-83
2021/01/15 15:12:50;;;;;;;28.25;11.40;;;;;;;0.32;68.66;98925.06;1755999;77;21440;31
2021/01/15 15:15:20;;;;;;;24.32;10.35;;;;;;;0.27;69.11;98925.01;1734221;80;21153;-82
2021/01/15 15:17:54;;;;;;;32.73;13.18;;;;;;;0.24;70.00;98921.55;1744299;75;21179;31
2021/01/15 15:20:23;;;;;;;28.65;11.43;;;;;;;0.25;70.18;98924.56;1731383;76;21303;-82
2021/01/15 15:22:51;;;;;;;32.95;12.25;;;;;;;0.26;70.93;98923.31;1728232;76;21227;-83
2021/01/15 15:28:44;;;;;;;38.53;14.75;;;;;;;0.33;70.86;98930.63;1742744;76;21219;-80
2021/01/15 15:34:20;;;;;;;32.93;10.68;;;;;;;0.32;71.18;98932.73;1752400;76;21259;-83
2021/01/15 15:36:55;;;;;;;26.30;11.38;;;;;;;0.34;71.54;98936.20;1792403;78;21283;-84
2021/01/15 15:39:33;;;;;;;31.20;10.77;;;;;;;0.32;71.26;98941.29;1746789;76;21273;31
2021/01/15 15:42:01;;;;;;;33.28;13.98;;;;;;;0.34;70.83;98946.43;1720159;77;21472;-82
2021/01/15 15:44:29;;;;;;;51.60;15.80;;;;;;;0.31;71.78;98941.27;1767766;79;21306;-84
2021/01/15 15:47:03;;;;;;;48.45;15.83;;;;;;;0.31;71.79;98947.23;1731608;77;21321;31
2021/01/15 15:49:31;;;;;;;36.55;13.40;;;;;;;0.32;71.71;98940.41;1703302;81;21220;-86
2021/01/15 15:55:24;;;;;;;24.00;8.90;;;;;;;0.26;72.93;98940.33;1728707;80;21217;-82
2021/01/15 15:57:52;;;;;;;26.93;11.78;;;;;;;0.26;72.54;98933.93;1688637;82;21230;-82
2021/01/15 16:03:44;;;;;;;31.90;13.00;;;;;;;0.26;72.66;98946.32;1766748;76;21257;-81
2021/01/15 16:06:34;;;;;;;30.52;11.65;;;;;;;0.26;72.60;98946.72;1734229;75;21252;31
2021/01/15 16:09:02;;;;;;;31.07;13.70;;;;;;;0.28;72.71;98946.31;1722089;77;22785;-81
2021/01/15 16:21:52;;;;;;;28.43;11.80;;;;;;;0.18;72.15;98967.09;1744622;77;22595;31
2021/01/15 16:27:38;;;;;;;33.18;12.78;;;;;;;-0.08;73.83;98965.00;1715588;78;21629;-82
2021/01/15 16:33:01;;;;;;;25.43;11.35;;;;;;;-0.11;75.17;98967.49;1729451;78;21140;-79
2021/01/15 16:35:30;;;;;;;32.88;12.13;;;;;;;-0.11;75.16;98967.49;1751050;77;21299;-80
2021/01/15 16:38:19;;;;;;;28.25;10.78;;;;;;;-0.09;76.58;98970.08;1738729;77;21391;-79
2021/01/15 16:47:32;;;;;;;18.57;9.05;;;;;;;-0.01;76.26;98971.91;1755266;77;21185;-83
2021/01/15 16:53:25;;;;;;;22.15;9.15;;;;;;;0.02;76.00;98982.63;1779409;77;21319;-80
2021/01/15 16:55:53;;;;;;;21.02;10.00;;;;;;;0.03;75.96;98987.30;1751408;75;23123;-79
2021/01/15 16:58:43;;;;;;;22.47;8.70;;;;;;;0.02;75.72;98990.29;1761465;77;21188;31
2021/01/15 17:27:36;;;;;;;23.85;10.00;;;;;;;-0.72;77.24;98986.46;1737107;79;21312;31
2021/01/15 17:56:42;;;;;;;17.60;7.22;;;;;;;-1.21;77.54;98996.60;1768916;76;21182;31
2021/01/15 17:59:24;;;;;;;20.50;7.37;;;;;;;-1.32;78.32;98995.94;1784141;76;21302;31
2021/01/15 18:28:21;;;;;;;12.47;5.87;;;;;;;-1.47;77.76;98992.23;1709181;77;22490;31
2021/01/15 18:31:02;;;;;;;14.47;5.65;;;;;;;-1.56;77.16;98992.03;1736737;78;21213;31
2021/01/15 18:57:09;;;;;;;18.60;7.50;;;;;;;-1.68;77.17;98996.44;1726139;78;22457;31
2021/01/15 19:06:17;;;;;;;15.08;6.47;;;;;;;-1.72;76.80;98998.90;1725447;79;21127;-83
2021/01/15 19:18:30;;;;;;;14.93;6.17;;;;;;;-1.82;75.35;99006.75;1735278;78;21233;31
2021/01/15 19:50:25;;;;;;;13.93;5.65;;;;;;;-2.04;76.19;99018.13;1740791;78;21161;-83
2021/01/15 20:36:39;;;;;;;19.00;6.33;;;;;;;-1.83;73.82;99011.38;1743796;76;21288;31
2021/01/15 20:39:17;;;;;;;16.15;6.08;;;;;;;-1.77;74.67;99007.73;1681787;80;21270;31
2021/01/15 20:41:45;;;;;;;12.30;4.65;;;;;;;-1.72;74.97;99004.84;1719524;81;21575;-82
2021/01/15 20:44:15;;;;;;;8.05;3.98;;;;;;;-1.73;73.59;99001.87;1713199;81;21370;-83
2021/01/15 20:46:43;;;;;;;15.10;6.10;;;;;;;-1.77;73.45;99006.45;1718838;81;21260;-82
2021/01/15 20:49:17;;;;;;;15.00;5.20;;;;;;;-1.80;73.76;99002.13;1712339;79;21280;31
2021/01/15 20:55:17;;;;;;;14.30;5.53;;;;;;;-1.74;74.44;99003.95;1732382;78;21185;31
2021/01/15 20:57:58;;;;;;;13.40;4.35;;;;;;;-1.71;74.52;99005.70;1698562;83;21217;-83
2021/01/15 21:11:01;;;;;;;13.20;4.42;;;;;;;-1.76;74.26;99003.48;1709668;80;21239;31
2021/01/15 21:22:49;;;;;;;12.47;4.97;;;;;;;-1.84;73.18;99006.70;1652325;85;21140;-83
2021/01/15 21:28:27;;;;;;;172.55;44.48;;;;;;;-1.92;73.21;99008.22;1721971;80;21185;-82
2021/01/15 21:37:07;;;;;;;90.15;29.82;;;;;;;-1.83;73.74;99012.66;1656604;86;21185;-82